sensor_id;sensor_type;location;lat;lon;timestamp;pressure;altitude;pressure_sealevel;temperature;humidity
20909;BME280;10614;53.198;6.570;2023-04-25T00:01:23;100913.06;;;6.47;100.00
20909;BME280;10614;53.198;6.570;2023-04-25T00:03:24;100912.19;;;6.46;100.00
20909;BME280;10614;53.198;6.570;2023-04-25T00:05:26;100913.94;;;6.46;100.00
20909;BME280;10614;53.198;6.570;2023-04-25T00:07:27;100913.94;;;6.46;100.00
20909;BME280;10614;53.198;6.570;2023-04-25T00:09:29;100917.56;;;6.39;100.00
20909;BME280;10614;53.198;6.570;2023-04-25T00:11:30;100918.47;;;6.38;100.00
20909;BME280;10614;53.198;6.570;2023-04-25T00:13:33;100924.56;;;6.38;100.00
20909;BME280;10614;53.198;6.570;2023-04-25T00:15:35;100932.47;;;6.35;100.00
20909;BME280;10614;53.198;6.570;2023-04-25T00:17:38;100918.56;;;6.33;100.00
20909;BME280;10614;53.198;6.570;2023-04-25T00:19:39;100939.47;;;6.34;100.00
20909;BME280;10614;53.198;6.570;2023-04-25T00:21:41;100927.28;;;6.33;100.00
20909;BME280;10614;53.198;6.570;2023-04-25T00:23:46;100920.28;;;6.34;100.00
20909;BME280;10614;53.198;6.570;2023-04-25T00:25:48;100931.56;;;6.38;100.00
20909;BME280;10614;53.198;6.570;2023-04-25T00:27:50;100945.56;;;6.35;100.00
20909;BME280;10614;53.198;6.570;2023-04-25T00:29:53;100949.97;;;6.31;100.00
20909;BME280;10614;53.198;6.570;2023-04-25T00:31:54;100950.03;;;6.30;100.00
20909;BME280;10614;53.198;6.570;2023-04-25T00:33:56;100940.41;;;6.30;100.00
20909;BME280;10614;53.198;6.570;2023-04-25T00:35:57;100954.38;;;6.29;100.00
20909;BME280;10614;53.198;6.570;2023-04-25T00:37:59;100951.75;;;6.29;100.00
20909;BME280;10614;53.198;6.570;2023-04-25T00:40:01;100947.44;;;6.28;100.00
20909;BME280;10614;53.198;6.570;2023-04-25T00:42:02;100947.44;;;6.28;100.00
20909;BME280;10614;53.198;6.570;2023-04-25T00:44:04;100950.13;;;6.25;100.00
20909;BME280;10614;53.198;6.570;2023-04-25T00:46:08;100942.28;;;6.24;100.00
20909;BME280;10614;53.198;6.570;2023-04-25T00:48:10;100939.78;;;6.19;100.00
20909;BME280;10614;53.198;6.570;2023-04-25T00:50:12;100950.16;;;6.22;100.00
20909;BME280;10614;53.198;6.570;2023-04-25T00:52:13;100944.94;;;6.22;100.00
20909;BME280;10614;53.198;6.570;2023-04-25T00:54:15;100945.84;;;6.21;100.00
20909;BME280;10614;53.198;6.570;2023-04-25T00:56:17;100942.28;;;6.24;100.00
20909;BME280;10614;53.198;6.570;2023-04-25T00:58:18;100944.09;;;6.20;100.00
20909;BME280;10614;53.198;6.570;2023-04-25T01:00:20;100946.78;;;6.17;100.00
20909;BME280;10614;53.198;6.570;2023-04-25T01:02:23;100945.94;;;6.15;100.00
20909;BME280;10614;53.198;6.570;2023-04-25T01:04:27;100947.72;;;6.15;100.00
20909;BME280;10614;53.198;6.570;2023-04-25T01:06:28;100958.19;;;6.13;100.00
20909;BME280;10614;53.198;6.570;2023-04-25T01:08:31;100959.09;;;6.12;100.00
20909;BME280;10614;53.198;6.570;2023-04-25T01:10:33;100951.22;;;6.13;100.00
20909;BME280;10614;53.198;6.570;2023-04-25T01:12:34;100952.94;;;6.15;99.81
20909;BME280;10614;53.198;6.570;2023-04-25T01:14:36;100955.56;;;6.13;98.61
20909;BME280;10614;53.198;6.570;2023-04-25T01:16:38;100945.13;;;6.13;97.65
20909;BME280;10614;53.198;6.570;2023-04-25T01:18:41;100954.72;;;6.12;97.55
20909;BME280;10614;53.198;6.570;2023-04-25T01:20:43;100949.47;;;6.12;95.91
20909;BME280;10614;53.198;6.570;2023-04-25T01:22:46;100942.56;;;6.11;96.23
20909;BME280;10614;53.198;6.570;2023-04-25T01:24:48;100944.25;;;6.14;96.28
20909;BME280;10614;53.198;6.570;2023-04-25T01:26:49;100955.56;;;6.13;94.55
20909;BME280;10614;53.198;6.570;2023-04-25T01:28:53;100961.72;;;6.10;95.12
20909;BME280;10614;53.198;6.570;2023-04-25T01:30:55;100960.00;;;6.09;94.70
20909;BME280;10614;53.198;6.570;2023-04-25T01:32:57;100963.47;;;6.10;93.01
20909;BME280;10614;53.198;6.570;2023-04-25T01:34:59;100961.72;;;6.10;93.70
20909;BME280;10614;53.198;6.570;2023-04-25T01:37:00;100959.97;;;6.11;92.61
20909;BME280;10614;53.198;6.570;2023-04-25T01:39:04;100955.63;;;6.10;91.56
20909;BME280;10614;53.198;6.570;2023-04-25T01:41:06;100969.56;;;6.10;91.82
20909;BME280;10614;53.198;6.570;2023-04-25T01:43:08;100962.63;;;6.08;92.02
20909;BME280;10614;53.198;6.570;2023-04-25T01:45:12;100961.78;;;6.09;91.65
20909;BME280;10614;53.198;6.570;2023-04-25T01:47:15;100960.00;;;6.09;90.19
20909;BME280;10614;53.198;6.570;2023-04-25T01:49:16;100967.00;;;6.09;90.25
20909;BME280;10614;53.198;6.570;2023-04-25T01:51:18;100961.78;;;6.09;90.79
20909;BME280;10614;53.198;6.570;2023-04-25T01:53:19;100961.78;;;6.09;90.65
20909;BME280;10614;53.198;6.570;2023-04-25T01:55:22;100971.38;;;6.07;90.88
20909;BME280;10614;53.198;6.570;2023-04-25T01:57:24;100967.94;;;6.05;91.59
20909;BME280;10614;53.198;6.570;2023-04-25T01:59:25;100972.31;;;6.03;91.72
20909;BME280;10614;53.198;6.570;2023-04-25T02:01:27;100979.25;;;6.04;92.50
20909;BME280;10614;53.198;6.570;2023-04-25T02:03:28;100981.88;;;6.04;93.56
20909;BME280;10614;53.198;6.570;2023-04-25T02:05:33;100982.75;;;6.04;93.69
20909;BME280;10614;53.198;6.570;2023-04-25T02:07:35;100978.41;;;6.03;93.97
20909;BME280;10614;53.198;6.570;2023-04-25T02:09:36;100976.72;;;6.01;93.90
20909;BME280;10614;53.198;6.570;2023-04-25T02:11:39;100979.34;;;5.99;94.25
20909;BME280;10614;53.198;6.570;2023-04-25T02:13:41;100983.72;;;5.99;94.82
20909;BME280;10614;53.198;6.570;2023-04-25T02:15:43;100992.41;;;6.01;95.50
20909;BME280;10614;53.198;6.570;2023-04-25T02:17:44;100987.25;;;5.96;94.77
20909;BME280;10614;53.198;6.570;2023-04-25T02:19:46;100989.88;;;5.95;95.97
20909;BME280;10614;53.198;6.570;2023-04-25T02:21:47;100991.66;;;5.92;95.16
20909;BME280;10614;53.198;6.570;2023-04-25T02:23:49;100994.28;;;5.92;95.87
20909;BME280;10614;53.198;6.570;2023-04-25T02:25:52;100998.66;;;5.90;95.33
20909;BME280;10614;53.198;6.570;2023-04-25T02:27:56;101003.03;;;5.90;95.11
20909;BME280;10614;53.198;6.570;2023-04-25T02:29:58;100997.81;;;5.90;96.13
20909;BME280;10614;53.198;6.570;2023-04-25T02:31:59;100996.09;;;5.87;96.06
20909;BME280;10614;53.198;6.570;2023-04-25T02:34:01;100993.53;;;5.86;95.61
20909;BME280;10614;53.198;6.570;2023-04-25T02:36:02;100990.91;;;5.84;95.87
20909;BME280;10614;53.198;6.570;2023-04-25T02:38:04;100994.47;;;5.80;96.13
20909;BME280;10614;53.198;6.570;2023-04-25T02:40:06;100995.38;;;5.78;96.86
20909;BME280;10614;53.198;6.570;2023-04-25T02:42:08;100993.69;;;5.77;98.37
20909;BME280;10614;53.198;6.570;2023-04-25T02:44:11;100994.59;;;5.74;98.03
20909;BME280;10614;53.198;6.570;2023-04-25T02:46:13;100997.22;;;5.72;98.43
20909;BME280;10614;53.198;6.570;2023-04-25T02:48:14;101001.59;;;5.72;98.04
20909;BME280;10614;53.198;6.570;2023-04-25T02:50:16;100997.28;;;5.69;98.80
20909;BME280;10614;53.198;6.570;2023-04-25T02:52:18;100992.91;;;5.70;98.79
20909;BME280;10614;53.198;6.570;2023-04-25T02:54:21;100998.16;;;5.70;99.37
20909;BME280;10614;53.198;6.570;2023-04-25T02:56:22;100993.00;;;5.67;99.53
20909;BME280;10614;53.198;6.570;2023-04-25T02:58:26;100997.31;;;5.66;99.39
20909;BME280;10614;53.198;6.570;2023-04-25T03:00:29;100995.63;;;5.64;99.43
20909;BME280;10614;53.198;6.570;2023-04-25T03:02:30;101002.59;;;5.65;99.11
20909;BME280;10614;53.198;6.570;2023-04-25T03:04:32;100999.97;;;5.65;99.04
20909;BME280;10614;53.198;6.570;2023-04-25T03:06:37;100999.06;;;5.66;99.95
20909;BME280;10614;53.198;6.570;2023-04-25T03:08:39;100993.00;;;5.64;99.53
20909;BME280;10614;53.198;6.570;2023-04-25T03:10:41;100998.25;;;5.64;100.00
20909;BME280;10614;53.198;6.570;2023-04-25T03:12:42;100999.19;;;5.60;99.73
20909;BME280;10614;53.198;6.570;2023-04-25T03:14:44;101002.66;;;5.60;99.81
20909;BME280;10614;53.198;6.570;2023-04-25T03:16:47;101013.19;;;5.57;99.96
20909;BME280;10614;53.198;6.570;2023-04-25T03:18:49;101005.34;;;5.56;100.00
20909;BME280;10614;53.198;6.570;2023-04-25T03:20:51;101000.97;;;5.58;99.03
20909;BME280;10614;53.198;6.570;2023-04-25T03:22:52;100996.69;;;5.54;99.28
20909;BME280;10614;53.198;6.570;2023-04-25T03:24:54;101005.41;;;5.53;99.34
20909;BME280;10614;53.198;6.570;2023-04-25T03:26:55;101001.06;;;5.52;100.00
20909;BME280;10614;53.198;6.570;2023-04-25T03:28:57;101004.50;;;5.54;99.64
20909;BME280;10614;53.198;6.570;2023-04-25T03:30:59;101008.09;;;5.48;99.80
20909;BME280;10614;53.198;6.570;2023-04-25T03:33:02;101015.94;;;5.48;99.58
20909;BME280;10614;53.198;6.570;2023-04-25T03:35:04;101015.88;;;5.49;99.07
20909;BME280;10614;53.198;6.570;2023-04-25T03:37:06;101014.19;;;5.48;99.65
20909;BME280;10614;53.198;6.570;2023-04-25T03:39:08;101018.53;;;5.48;99.47
20909;BME280;10614;53.198;6.570;2023-04-25T03:41:10;101017.66;;;5.47;98.86
20909;BME280;10614;53.198;6.570;2023-04-25T03:43:12;101017.69;;;5.46;98.44
20909;BME280;10614;53.198;6.570;2023-04-25T03:45:13;101012.50;;;5.44;97.74
20909;BME280;10614;53.198;6.570;2023-04-25T03:47:15;101016.88;;;5.44;98.09
20909;BME280;10614;53.198;6.570;2023-04-25T03:49:18;101025.59;;;5.41;97.55
20909;BME280;10614;53.198;6.570;2023-04-25T03:51:20;101026.53;;;5.37;96.92
20909;BME280;10614;53.198;6.570;2023-04-25T03:53:21;101030.06;;;5.33;97.39
20909;BME280;10614;53.198;6.570;2023-04-25T03:55:23;101030.97;;;5.32;95.89
20909;BME280;10614;53.198;6.570;2023-04-25T03:57:25;101032.75;;;5.30;94.97
20909;BME280;10614;53.198;6.570;2023-04-25T03:59:27;101031.91;;;5.28;95.64
20909;BME280;10614;53.198;6.570;2023-04-25T04:01:28;101045.00;;;5.25;95.50
20909;BME280;10614;53.198;6.570;2023-04-25T04:03:30;101047.63;;;5.22;94.55
20909;BME280;10614;53.198;6.570;2023-04-25T04:05:33;101046.84;;;5.18;94.38
20909;BME280;10614;53.198;6.570;2023-04-25T04:07:34;101045.13;;;5.16;94.90
20909;BME280;10614;53.198;6.570;2023-04-25T04:09:39;101054.66;;;5.17;94.43
20909;BME280;10614;53.198;6.570;2023-04-25T04:11:41;101057.31;;;5.15;95.08
20909;BME280;10614;53.198;6.570;2023-04-25T04:13:42;101058.25;;;5.11;93.94
20909;BME280;10614;53.198;6.570;2023-04-25T04:15:44;101061.75;;;5.08;94.46
20909;BME280;10614;53.198;6.570;2023-04-25T04:17:45;101066.13;;;5.06;95.76
20909;BME280;10614;53.198;6.570;2023-04-25T04:19:47;101066.16;;;5.05;95.29
20909;BME280;10614;53.198;6.570;2023-04-25T04:21:50;101064.44;;;5.04;95.02
20909;BME280;10614;53.198;6.570;2023-04-25T04:23:52;101068.78;;;5.03;96.23
20909;BME280;10614;53.198;6.570;2023-04-25T04:25:54;101074.00;;;5.03;96.56
20909;BME280;10614;53.198;6.570;2023-04-25T04:27:56;101074.00;;;5.03;96.05
20909;BME280;10614;53.198;6.570;2023-04-25T04:29:58;101065.28;;;5.04;96.73
20909;BME280;10614;53.198;6.570;2023-04-25T04:32:00;101073.97;;;5.06;96.53
20909;BME280;10614;53.198;6.570;2023-04-25T04:34:03;101070.44;;;5.07;96.42
20909;BME280;10614;53.198;6.570;2023-04-25T04:36:05;101075.66;;;5.07;97.33
20909;BME280;10614;53.198;6.570;2023-04-25T04:38:10;101073.09;;;5.06;97.33
20909;BME280;10614;53.198;6.570;2023-04-25T04:40:12;101075.72;;;5.06;97.15
20909;BME280;10614;53.198;6.570;2023-04-25T04:42:15;101080.88;;;5.07;97.65
20909;BME280;10614;53.198;6.570;2023-04-25T04:44:17;101079.19;;;5.06;98.19
20909;BME280;10614;53.198;6.570;2023-04-25T04:46:18;101078.34;;;5.04;97.29
20909;BME280;10614;53.198;6.570;2023-04-25T04:48:20;101076.69;;;4.99;97.62
20909;BME280;10614;53.198;6.570;2023-04-25T04:50:21;101083.66;;;4.97;98.35
20909;BME280;10614;53.198;6.570;2023-04-25T04:52:23;101093.22;;;4.96;98.95
20909;BME280;10614;53.198;6.570;2023-04-25T04:54:26;101097.56;;;4.97;98.99
20909;BME280;10614;53.198;6.570;2023-04-25T04:56:28;101094.94;;;4.97;98.57
20909;BME280;10614;53.198;6.570;2023-04-25T04:58:31;101099.25;;;5.00;98.06
20909;BME280;10614;53.198;6.570;2023-04-25T05:00:33;101092.34;;;4.97;98.08
20909;BME280;10614;53.198;6.570;2023-04-25T05:02:34;101096.66;;;4.98;98.55
20909;BME280;10614;53.198;6.570;2023-04-25T05:04:36;101116.66;;;4.99;97.78
20909;BME280;10614;53.198;6.570;2023-04-25T05:06:37;101127.97;;;5.00;98.40
20909;BME280;10614;53.198;6.570;2023-04-25T05:08:39;101144.56;;;4.93;98.16
20909;BME280;10614;53.198;6.570;2023-04-25T05:10:42;101144.66;;;4.85;98.82
20909;BME280;10614;53.198;6.570;2023-04-25T05:12:44;101134.25;;;4.82;100.00
20909;BME280;10614;53.198;6.570;2023-04-25T05:14:46;101131.69;;;4.79;100.00
20909;BME280;10614;53.198;6.570;2023-04-25T05:16:48;101136.91;;;4.77;100.00
20909;BME280;10614;53.198;6.570;2023-04-25T05:18:49;101135.25;;;4.73;100.00
20909;BME280;10614;53.198;6.570;2023-04-25T05:20:51;101137.00;;;4.70;100.00
20909;BME280;10614;53.198;6.570;2023-04-25T05:22:53;101139.66;;;4.67;100.00
20909;BME280;10614;53.198;6.570;2023-04-25T05:24:55;101134.44;;;4.67;100.00
20909;BME280;10614;53.198;6.570;2023-04-25T05:26:57;101134.44;;;4.65;100.00
20909;BME280;10614;53.198;6.570;2023-04-25T05:28:59;101131.84;;;4.67;100.00
20909;BME280;10614;53.198;6.570;2023-04-25T05:31:01;101130.94;;;4.68;100.00
20909;BME280;10614;53.198;6.570;2023-04-25T05:33:02;101131.78;;;4.70;100.00
20909;BME280;10614;53.198;6.570;2023-04-25T05:35:06;101122.22;;;4.72;100.00
20909;BME280;10614;53.198;6.570;2023-04-25T05:37:08;101132.59;;;4.75;100.00
20909;BME280;10614;53.198;6.570;2023-04-25T05:39:09;101133.44;;;4.77;100.00
20909;BME280;10614;53.198;6.570;2023-04-25T05:41:11;101133.44;;;4.78;100.00
20909;BME280;10614;53.198;6.570;2023-04-25T05:43:14;101136.91;;;4.79;100.00
20909;BME280;10614;53.198;6.570;2023-04-25T05:45:15;101131.69;;;4.79;100.00
20909;BME280;10614;53.198;6.570;2023-04-25T05:47:17;101131.69;;;4.80;100.00
20909;BME280;10614;53.198;6.570;2023-04-25T05:49:19;101140.38;;;4.79;100.00
20909;BME280;10614;53.198;6.570;2023-04-25T05:51:20;101141.22;;;4.80;100.00
20909;BME280;10614;53.198;6.570;2023-04-25T05:53:22;101131.66;;;4.82;100.00
20909;BME280;10614;53.198;6.570;2023-04-25T05:55:24;101148.16;;;4.84;100.00
20909;BME280;10614;53.198;6.570;2023-04-25T05:57:26;101160.28;;;4.86;100.00
20909;BME280;10614;53.198;6.570;2023-04-25T05:59:30;101155.91;;;4.89;100.00
20909;BME280;10614;53.198;6.570;2023-04-25T06:01:31;101167.25;;;4.88;100.00
20909;BME280;10614;53.198;6.570;2023-04-25T06:03:33;101164.63;;;4.88;100.00
20909;BME280;10614;53.198;6.570;2023-04-25T06:05:34;101165.53;;;4.85;100.00
20909;BME280;10614;53.198;6.570;2023-04-25T06:07:36;101162.06;;;4.83;100.00
20909;BME280;10614;53.198;6.570;2023-04-25T06:09:38;101161.22;;;4.82;100.00
20909;BME280;10614;53.198;6.570;2023-04-25T06:11:41;101158.56;;;4.85;100.00
20909;BME280;10614;53.198;6.570;2023-04-25T06:13:43;101165.53;;;4.85;100.00
20909;BME280;10614;53.198;6.570;2023-04-25T06:15:46;101167.25;;;4.88;100.00
20909;BME280;10614;53.198;6.570;2023-04-25T06:17:48;101167.22;;;4.89;100.00
20909;BME280;10614;53.198;6.570;2023-04-25T06:19:50;101168.06;;;4.91;100.00
20909;BME280;10614;53.198;6.570;2023-04-25T06:21:53;101176.72;;;4.93;100.00
20909;BME280;10614;53.198;6.570;2023-04-25T06:23:55;101171.50;;;4.93;100.00
20909;BME280;10614;53.198;6.570;2023-04-25T06:25:57;101179.34;;;4.95;100.00
20909;BME280;10614;53.198;6.570;2023-04-25T06:28:01;101183.66;;;4.97;100.00
20909;BME280;10614;53.198;6.570;2023-04-25T06:30:03;101178.38;;;5.00;100.00
20909;BME280;10614;53.198;6.570;2023-04-25T06:32:06;101179.19;;;5.05;100.00
20909;BME280;10614;53.198;6.570;2023-04-25T06:34:08;101180.88;;;5.10;100.00
20909;BME280;10614;53.198;6.570;2023-04-25T06:36:10;101178.22;;;5.13;100.00
20909;BME280;10614;53.198;6.570;2023-04-25T06:38:11;101176.47;;;5.16;100.00
20909;BME280;10614;53.198;6.570;2023-04-25T06:40:13;101176.41;;;5.19;100.00
20909;BME280;10614;53.198;6.570;2023-04-25T06:42:15;101176.34;;;5.27;100.00
20909;BME280;10614;53.198;6.570;2023-04-25T06:44:19;101173.69;;;5.30;100.00
20909;BME280;10614;53.198;6.570;2023-04-25T06:46:21;101179.69;;;5.35;100.00
20909;BME280;10614;53.198;6.570;2023-04-25T06:48:25;101184.88;;;5.38;100.00
20909;BME280;10614;53.198;6.570;2023-04-25T06:50:29;101190.88;;;5.45;100.00
20909;BME280;10614;53.198;6.570;2023-04-25T06:52:32;101216.94;;;5.49;100.00
20909;BME280;10614;53.198;6.570;2023-04-25T06:54:34;101214.16;;;5.62;99.46
20909;BME280;10614;53.198;6.570;2023-04-25T06:56:35;101207.16;;;5.64;100.00
20909;BME280;10614;53.198;6.570;2023-04-25T06:58:37;101210.63;;;5.66;100.00
20909;BME280;10614;53.198;6.570;2023-04-25T07:00:38;101208.84;;;5.68;100.00
20909;BME280;10614;53.198;6.570;2023-04-25T07:02:40;101213.22;;;5.67;97.39
20909;BME280;10614;53.198;6.570;2023-04-25T07:04:47;101222.81;;;5.67;92.81
20909;BME280;10614;53.198;6.570;2023-04-25T07:06:50;101220.16;;;5.68;92.64
20909;BME280;10614;53.198;6.570;2023-04-25T07:08:51;101214.06;;;5.68;92.74
20909;BME280;10614;53.198;6.570;2023-04-25T07:10:53;101209.72;;;5.70;92.88
20909;BME280;10614;53.198;6.570;2023-04-25T07:12:55;101213.16;;;5.74;92.82
20909;BME280;10614;53.198;6.570;2023-04-25T07:14:56;101215.59;;;5.84;92.18
20909;BME280;10614;53.198;6.570;2023-04-25T07:16:58;101219.94;;;5.85;92.00
20909;BME280;10614;53.198;6.570;2023-04-25T07:19:00;101224.28;;;5.85;92.65
20909;BME280;10614;53.198;6.570;2023-04-25T07:21:05;101227.69;;;5.91;91.01
20909;BME280;10614;53.198;6.570;2023-04-25T07:23:06;101224.19;;;5.94;90.26
20909;BME280;10614;53.198;6.570;2023-04-25T07:25:09;101220.69;;;5.93;89.00
20909;BME280;10614;53.198;6.570;2023-04-25T07:27:10;101231.09;;;5.98;88.84
20909;BME280;10614;53.198;6.570;2023-04-25T07:29:12;101238.09;;;5.95;88.00
20909;BME280;10614;53.198;6.570;2023-04-25T07:31:13;101236.31;;;6.00;87.41
20909;BME280;10614;53.198;6.570;2023-04-25T07:33:17;101233.63;;;6.04;85.11
20909;BME280;10614;53.198;6.570;2023-04-25T07:35:20;101246.72;;;6.03;85.93
20909;BME280;10614;53.198;6.570;2023-04-25T07:37:23;101237.06;;;6.08;86.76
20909;BME280;10614;53.198;6.570;2023-04-25T07:39:25;101238.75;;;6.10;88.00
20909;BME280;10614;53.198;6.570;2023-04-25T07:41:27;101249.13;;;6.15;88.48
20909;BME280;10614;53.198;6.570;2023-04-25T07:43:28;101243.00;;;6.18;88.34
20909;BME280;10614;53.198;6.570;2023-04-25T07:45:30;101243.81;;;6.21;89.25
20909;BME280;10614;53.198;6.570;2023-04-25T07:47:31;101256.78;;;6.27;89.18
20909;BME280;10614;53.198;6.570;2023-04-25T07:49:33;101251.56;;;6.27;88.94
20909;BME280;10614;53.198;6.570;2023-04-25T07:51:35;101249.97;;;6.17;84.56
20909;BME280;10614;53.198;6.570;2023-04-25T07:53:38;101259.50;;;6.21;84.42
20909;BME280;10614;53.198;6.570;2023-04-25T07:55:40;101264.81;;;6.17;84.27
20909;BME280;10614;53.198;6.570;2023-04-25T07:57:42;101265.66;;;6.19;84.14
20909;BME280;10614;53.198;6.570;2023-04-25T07:59:43;101284.81;;;6.19;84.14
20909;BME280;10614;53.198;6.570;2023-04-25T08:01:45;101277.81;;;6.21;82.08
20909;BME280;10614;53.198;6.570;2023-04-25T08:03:46;101278.66;;;6.23;82.51
20909;BME280;10614;53.198;6.570;2023-04-25T08:05:48;101290.88;;;6.23;81.39
20909;BME280;10614;53.198;6.570;2023-04-25T08:07:49;101287.34;;;6.24;81.75
20909;BME280;10614;53.198;6.570;2023-04-25T08:09:52;101304.75;;;6.26;83.31
20909;BME280;10614;53.198;6.570;2023-04-25T08:11:54;101349.19;;;6.26;85.26
20909;BME280;10614;53.198;6.570;2023-04-25T08:13:55;101344.09;;;6.17;88.21
20909;BME280;10614;53.198;6.570;2023-04-25T08:15:57;101334.59;;;6.10;89.78
20909;BME280;10614;53.198;6.570;2023-04-25T08:17:58;101359.19;;;5.95;94.08
20909;BME280;10614;53.198;6.570;2023-04-25T08:20:00;101356.00;;;5.67;95.28
20909;BME280;10614;53.198;6.570;2023-04-25T08:22:05;101360.63;;;5.40;96.73
20909;BME280;10614;53.198;6.570;2023-04-25T08:24:07;101334.72;;;5.23;97.83
20909;BME280;10614;53.198;6.570;2023-04-25T08:26:09;101336.56;;;5.15;98.92
20909;BME280;10614;53.198;6.570;2023-04-25T08:28:11;101329.56;;;5.16;99.26
20909;BME280;10614;53.198;6.570;2023-04-25T08:30:13;101332.16;;;5.17;100.00
20909;BME280;10614;53.198;6.570;2023-04-25T08:32:15;101326.94;;;5.19;100.00
20909;BME280;10614;53.198;6.570;2023-04-25T08:34:16;101319.88;;;5.28;99.84
20909;BME280;10614;53.198;6.570;2023-04-25T08:36:18;101320.72;;;5.32;98.74
20909;BME280;10614;53.198;6.570;2023-04-25T08:38:20;101336.34;;;5.35;99.02
20909;BME280;10614;53.198;6.570;2023-04-25T08:40:22;101328.41;;;5.43;98.73
20909;BME280;10614;53.198;6.570;2023-04-25T08:42:28;101330.97;;;5.47;97.48
20909;BME280;10614;53.198;6.570;2023-04-25T08:44:30;101332.63;;;5.58;95.53
20909;BME280;10614;53.198;6.570;2023-04-25T08:46:31;101334.28;;;5.63;95.52
20909;BME280;10614;53.198;6.570;2023-04-25T08:48:33;101334.22;;;5.68;93.67
20909;BME280;10614;53.198;6.570;2023-04-25T08:50:36;101339.34;;;5.76;93.23
20909;BME280;10614;53.198;6.570;2023-04-25T08:52:39;101332.34;;;5.79;92.24
20909;BME280;10614;53.198;6.570;2023-04-25T08:54:43;101329.69;;;5.85;91.04
20909;BME280;10614;53.198;6.570;2023-04-25T08:56:49;101331.31;;;5.94;90.38
20909;BME280;10614;53.198;6.570;2023-04-25T08:58:52;101340.84;;;6.00;89.78
20909;BME280;10614;53.198;6.570;2023-04-25T09:00:53;101335.50;;;6.07;89.79
20909;BME280;10614;53.198;6.570;2023-04-25T09:02:55;101339.75;;;6.15;89.64
20909;BME280;10614;53.198;6.570;2023-04-25T09:04:57;101341.47;;;6.19;89.41
20909;BME280;10614;53.198;6.570;2023-04-25T09:06:59;101347.47;;;6.25;88.12
20909;BME280;10614;53.198;6.570;2023-04-25T09:09:01;101347.41;;;6.30;88.92
20909;BME280;10614;53.198;6.570;2023-04-25T09:11:04;101349.97;;;6.31;87.44
20909;BME280;10614;53.198;6.570;2023-04-25T09:13:06;101340.41;;;6.30;88.17
20909;BME280;10614;53.198;6.570;2023-04-25T09:15:11;101353.38;;;6.38;88.41
20909;BME280;10614;53.198;6.570;2023-04-25T09:17:12;101351.53;;;6.45;88.39
20909;BME280;10614;53.198;6.570;2023-04-25T09:19:20;101357.56;;;6.50;89.77
20909;BME280;10614;53.198;6.570;2023-04-25T09:21:22;101354.88;;;6.53;90.36
20909;BME280;10614;53.198;6.570;2023-04-25T09:23:23;101346.16;;;6.55;90.11
20909;BME280;10614;53.198;6.570;2023-04-25T09:25:25;101340.88;;;6.57;89.68
20909;BME280;10614;53.198;6.570;2023-04-25T09:27:27;101346.81;;;6.68;89.94
20909;BME280;10614;53.198;6.570;2023-04-25T09:29:29;101351.97;;;6.74;88.66
20909;BME280;10614;53.198;6.570;2023-04-25T09:31:32;101358.00;;;6.78;88.92
20909;BME280;10614;53.198;6.570;2023-04-25T09:33:34;101401.47;;;6.88;87.70
20909;BME280;10614;53.198;6.570;2023-04-25T09:35:36;101378.84;;;6.83;87.90
20909;BME280;10614;53.198;6.570;2023-04-25T09:37:39;101376.50;;;6.67;90.14
20909;BME280;10614;53.198;6.570;2023-04-25T09:39:41;101384.47;;;6.58;91.33
20909;BME280;10614;53.198;6.570;2023-04-25T09:41:45;101375.88;;;6.48;92.59
20909;BME280;10614;53.198;6.570;2023-04-25T09:43:47;101381.22;;;6.42;93.39
20909;BME280;10614;53.198;6.570;2023-04-25T09:45:50;101375.06;;;6.45;93.83
20909;BME280;10614;53.198;6.570;2023-04-25T09:47:56;101382.00;;;6.47;93.92
20909;BME280;10614;53.198;6.570;2023-04-25T09:49:58;101388.88;;;6.56;94.46
20909;BME280;10614;53.198;6.570;2023-04-25T09:51:59;101392.13;;;6.70;90.55
20909;BME280;10614;53.198;6.570;2023-04-25T09:54:01;101395.41;;;6.85;86.40
20909;BME280;10614;53.198;6.570;2023-04-25T09:56:03;101407.44;;;6.95;84.35
20909;BME280;10614;53.198;6.570;2023-04-25T09:58:05;101410.97;;;6.94;84.64
20909;BME280;10614;53.198;6.570;2023-04-25T10:00:08;101405.72;;;6.94;81.11
20909;BME280;10614;53.198;6.570;2023-04-25T10:02:13;101412.88;;;6.84;81.96
20909;BME280;10614;53.198;6.570;2023-04-25T10:04:18;101410.31;;;6.80;83.82
20909;BME280;10614;53.198;6.570;2023-04-25T10:06:20;101401.56;;;6.81;84.15
20909;BME280;10614;53.198;6.570;2023-04-25T10:08:24;101412.75;;;6.92;84.52
20909;BME280;10614;53.198;6.570;2023-04-25T10:10:26;101425.75;;;6.98;85.16
20909;BME280;10614;53.198;6.570;2023-04-25T10:12:29;101418.66;;;7.03;83.68
20909;BME280;10614;53.198;6.570;2023-04-25T10:14:31;101415.06;;;7.09;84.82
20909;BME280;10614;53.198;6.570;2023-04-25T10:16:32;101428.88;;;7.18;84.28
20909;BME280;10614;53.198;6.570;2023-04-25T10:18:34;101431.41;;;7.23;82.98
20909;BME280;10614;53.198;6.570;2023-04-25T10:20:39;101430.47;;;7.27;84.63
20909;BME280;10614;53.198;6.570;2023-04-25T10:22:41;101418.22;;;7.29;86.36
20909;BME280;10614;53.198;6.570;2023-04-25T10:24:43;101421.72;;;7.30;87.39
20909;BME280;10614;53.198;6.570;2023-04-25T10:26:46;101428.78;;;7.25;88.20
20909;BME280;10614;53.198;6.570;2023-04-25T10:28:54;101426.19;;;7.23;88.09
20909;BME280;10614;53.198;6.570;2023-04-25T10:30:57;101435.03;;;7.16;88.51
20909;BME280;10614;53.198;6.570;2023-04-25T10:32:59;101442.94;;;7.13;87.95
20909;BME280;10614;53.198;6.570;2023-04-25T10:35:10;101433.44;;;7.07;87.86
20909;BME280;10614;53.198;6.570;2023-04-25T10:37:14;101435.19;;;7.07;88.31
20909;BME280;10614;53.198;6.570;2023-04-25T10:39:15;101427.28;;;7.10;89.01
20909;BME280;10614;53.198;6.570;2023-04-25T10:41:22;101426.31;;;7.17;88.66
20909;BME280;10614;53.198;6.570;2023-04-25T10:43:33;101440.19;;;7.21;88.46
20909;BME280;10614;53.198;6.570;2023-04-25T10:45:49;101439.25;;;7.26;87.42